Time;durP1;ratioP1;P1;durP2;ratioP2;P2;SDS_P1;SDS_P2;PMS_P1;PMS_P2;Temp;Humidity;BMP_temperature;BMP_pressure;BME280_temperature;BME280_humidity;BME280_pressure;Samples;Min_cycle;Max_cycle;Signal;HPM_P1;HPM_P2
2022/05/23 00:00:58;;;;;;;8.80;3.50;;;;;;;;;;6191707;23;20552;-85
2022/05/23 00:04:04;;;;;;;12.38;4.18;;;;;;;;;;6173933;23;20207;-85
2022/05/23 00:07:13;;;;;;;6.30;3.75;;;;;;;;;;6173536;23;20303;-85
2022/05/23 00:10:22;;;;;;;6.70;3.95;;;;;;;;;;6173858;23;20529;-86
2022/05/23 00:13:27;;;;;;;7.30;3.85;;;;;;;;;;6175170;23;20546;-86
2022/05/23 00:16:35;;;;;;;11.15;3.83;;;;;;;;;;6193415;23;20184;-85
2022/05/23 00:19:40;;;;;;;7.00;3.75;;;;;;;;;;6173458;23;20179;-85
2022/05/23 00:22:48;;;;;;;8.43;3.92;;;;;;;;;;6173443;23;20171;-85
2022/05/23 00:25:54;;;;;;;7.60;3.78;;;;;;;;;;6173070;23;20283;-84
2022/05/23 00:28:59;;;;;;;7.95;3.05;;;;;;;;;;6173383;23;20251;-86
2022/05/23 00:35:28;;;;;;;6.05;3.28;;;;;;;;;;6172955;23;20235;-86
2022/05/23 00:38:36;;;;;;;10.43;3.45;;;;;;;;;;6173645;23;20408;-85
2022/05/23 00:45:06;;;;;;;7.93;3.40;;;;;;;;;;6173681;23;20450;-85
2022/05/23 00:48:12;;;;;;;7.80;3.42;;;;;;;;;;6175569;23;20239;-87
2022/05/23 00:51:17;;;;;;;7.82;3.58;;;;;;;;;;6194188;23;20172;-85
2022/05/23 00:54:26;;;;;;;6.70;3.72;;;;;;;;;;6176154;23;20175;-85
2022/05/23 00:57:35;;;;;;;4.53;3.10;;;;;;;;;;6180265;23;20266;-85
2022/05/23 01:00:41;;;;;;;5.78;2.97;;;;;;;;;;6182801;23;20203;-85
2022/05/23 01:03:46;;;;;;;5.97;2.72;;;;;;;;;;6177913;23;20648;-85
2022/05/23 01:06:52;;;;;;;7.68;3.00;;;;;;;;;;6192001;23;20180;-85
2022/05/23 01:09:59;;;;;;;7.47;3.30;;;;;;;;;;6173261;23;20176;-85
2022/05/23 01:13:04;;;;;;;4.30;2.78;;;;;;;;;;6173054;23;20521;-85
2022/05/23 01:16:14;;;;;;;6.22;3.00;;;;;;;;;;6190070;23;20188;-85
2022/05/23 01:19:25;;;;;;;5.03;2.90;;;;;;;;;;6172961;23;20238;-85
2022/05/23 01:22:33;;;;;;;5.90;2.95;;;;;;;;;;6172368;23;20251;-85
2022/05/23 01:25:42;;;;;;;5.40;3.05;;;;;;;;;;6172265;23;20196;-85
2022/05/23 01:28:48;;;;;;;6.88;2.70;;;;;;;;;;6172517;23;20407;-86
2022/05/23 01:32:18;;;;;;;8.32;3.30;;;;;;;;;;6172705;23;20168;-86
2022/05/23 01:35:27;;;;;;;8.50;3.10;;;;;;;;;;6172032;23;20288;-85
2022/05/23 01:38:33;;;;;;;5.60;3.28;;;;;;;;;;6172763;23;20172;-85
2022/05/23 01:41:55;;;;;;;7.75;3.55;;;;;;;;;;6173547;23;20212;-85
2022/05/23 01:45:00;;;;;;;6.90;2.95;;;;;;;;;;6172477;23;20296;-85
2022/05/23 01:48:06;;;;;;;5.63;3.17;;;;;;;;;;6172000;23;20629;-84
2022/05/23 01:51:11;;;;;;;6.10;3.42;;;;;;;;;;6171998;23;20172;-84
2022/05/23 01:54:16;;;;;;;12.07;4.32;;;;;;;;;;6172261;23;20625;-85
2022/05/23 01:57:26;;;;;;;6.78;2.95;;;;;;;;;;6177385;23;20236;-85
2022/05/23 02:04:01;;;;;;;5.03;2.95;;;;;;;;;;6172753;23;20176;-86
2022/05/23 02:07:19;;;;;;;4.50;2.72;;;;;;;;;;6171963;23;20179;-85
2022/05/23 02:10:27;;;;;;;6.93;3.85;;;;;;;;;;6171886;23;20511;-85
2022/05/23 02:13:34;;;;;;;4.53;2.92;;;;;;;;;;6172473;23;20175;-85
2022/05/23 02:16:43;;;;;;;4.18;2.60;;;;;;;;;;6171367;23;20280;-86
2022/05/23 02:19:54;;;;;;;12.05;3.25;;;;;;;;;;6172208;23;20240;-86
2022/05/23 02:23:01;;;;;;;7.45;3.17;;;;;;;;;;6171687;23;20296;-86
2022/05/23 02:26:07;;;;;;;4.68;2.80;;;;;;;;;;6171479;23;20176;-85
2022/05/23 02:29:25;;;;;;;8.73;2.95;;;;;;;;;;6172283;23;20176;-86
2022/05/23 02:32:30;;;;;;;9.85;2.53;;;;;;;;;;6154583;23;20176;-85
2022/05/23 02:35:39;;;;;;;6.50;2.88;;;;;;;;;;6171216;23;20219;-85
2022/05/23 02:38:44;;;;;;;6.57;2.90;;;;;;;;;;6171665;23;20697;-86
2022/05/23 02:41:51;;;;;;;8.70;3.55;;;;;;;;;;6171733;23;20198;-85
2022/05/23 02:45:01;;;;;;;5.88;3.15;;;;;;;;;;6171377;23;20175;-86
2022/05/23 02:48:08;;;;;;;8.27;2.97;;;;;;;;;;6171938;23;20250;-86
2022/05/23 02:51:14;;;;;;;5.82;2.90;;;;;;;;;;6189378;23;20166;-86
2022/05/23 02:54:23;;;;;;;7.22;2.97;;;;;;;;;;6171551;23;20811;-86
2022/05/23 02:57:34;;;;;;;5.93;2.65;;;;;;;;;;6171206;23;20175;-86
2022/05/23 03:00:45;;;;;;;6.95;2.70;;;;;;;;;;6171778;23;20599;-86
2022/05/23 03:03:50;;;;;;;6.07;2.90;;;;;;;;;;6170960;23;20179;-86
2022/05/23 03:06:57;;;;;;;5.45;2.97;;;;;;;;;;6170918;23;20179;-86
2022/05/23 03:10:02;;;;;;;6.90;3.45;;;;;;;;;;6171342;23;20176;-86
2022/05/23 03:13:07;;;;;;;10.82;3.60;;;;;;;;;;6171644;23;20171;-86
2022/05/23 03:16:14;;;;;;;9.77;3.35;;;;;;;;;;6170722;23;20557;-84
2022/05/23 03:19:22;;;;;;;11.45;4.22;;;;;;;;;;6169912;23;20475;-85
2022/05/23 03:29:14;;;;;;;6.97;3.70;;;;;;;;;;6171654;23;20189;-85
2022/05/23 03:32:24;;;;;;;9.85;3.92;;;;;;;;;;6171576;23;20200;-85
2022/05/23 03:35:33;;;;;;;8.18;3.58;;;;;;;;;;6170921;23;20405;-85
2022/05/23 03:38:39;;;;;;;9.02;3.20;;;;;;;;;;6174197;23;20192;-85
2022/05/23 03:41:44;;;;;;;7.03;3.33;;;;;;;;;;6173484;23;20314;-85
2022/05/23 03:44:49;;;;;;;8.13;3.53;;;;;;;;;;6171000;23;20183;-85
2022/05/23 03:47:57;;;;;;;6.75;3.35;;;;;;;;;;6189336;23;20502;-85
2022/05/23 03:51:02;;;;;;;8.00;2.90;;;;;;;;;;6188979;23;20168;-86
2022/05/23 03:54:08;;;;;;;5.90;3.45;;;;;;;;;;6170874;23;20413;-85
2022/05/23 03:57:14;;;;;;;5.47;2.72;;;;;;;;;;6171505;23;20179;-86
2022/05/23 04:00:20;;;;;;;6.82;3.50;;;;;;;;;;6189243;23;20172;-86
2022/05/23 04:03:35;;;;;;;11.18;3.17;;;;;;;;;;6171793;23;20204;-86
2022/05/23 04:06:40;;;;;;;4.90;3.13;;;;;;;;;;6170729;23;20238;-86
2022/05/23 04:09:46;;;;;;;9.88;4.07;;;;;;;;;;6171104;23;20231;-86
2022/05/23 04:12:51;;;;;;;7.07;3.70;;;;;;;;;;6171109;23;20267;-86
2022/05/23 04:15:57;;;;;;;10.60;3.35;;;;;;;;;;6170555;23;20227;-86
2022/05/23 04:19:08;;;;;;;6.40;3.30;;;;;;;;;;6171315;23;20175;-86
2022/05/23 22:49:00;;;;;;;8.20;2.75;;;;;;;;;;6152642;23;20232;31
2022/05/23 22:52:06;;;;;;;9.65;3.10;;;;;;;;;;6113989;23;20236;-88
2022/05/23 22:55:12;;;;;;;8.73;3.08;;;;;;;;;;6117362;23;20778;-88
2022/05/23 22:58:20;;;;;;;4.13;2.65;;;;;;;;;;6119852;23;20180;-89
2022/05/23 23:01:27;;;;;;;8.40;4.30;;;;;;;;;;6118681;23;20176;-89
2022/05/23 23:04:36;;;;;;;8.27;4.60;;;;;;;;;;6128468;23;20169;-90
2022/05/23 23:11:20;;;;;;;4.65;3.50;;;;;;;;;;6133879;23;20202;-88
2022/05/23 23:14:28;;;;;;;8.25;3.90;;;;;;;;;;6114568;23;20193;-90
2022/05/23 23:17:34;;;;;;;9.20;3.35;;;;;;;;;;6135964;23;20177;-89
2022/05/23 23:20:41;;;;;;;6.18;3.50;;;;;;;;;;6162157;23;20176;-90
2022/05/23 23:23:46;;;;;;;10.25;3.40;;;;;;;;;;6159084;23;20247;-90
2022/05/23 23:26:52;;;;;;;9.00;3.55;;;;;;;;;;6160227;23;20176;-89
2022/05/23 23:29:57;;;;;;;5.57;3.38;;;;;;;;;;6161700;23;20176;-88
2022/05/23 23:39:51;;;;;;;10.55;3.00;;;;;;;;;;6144155;23;20228;-89
2022/05/23 23:42:56;;;;;;;9.00;3.75;;;;;;;;;;6144649;23;20807;-89
2022/05/23 23:46:02;;;;;;;4.68;2.90;;;;;;;;;;6143278;23;20533;-89
2022/05/23 23:49:07;;;;;;;6.80;3.33;;;;;;;;;;6147747;23;20180;-90
2022/05/23 23:52:14;;;;;;;5.82;3.40;;;;;;;;;;6147030;23;20202;-89
2022/05/23 23:55:19;;;;;;;7.75;3.13;;;;;;;;;;6148784;23;20175;-89
2022/05/23 23:58:25;;;;;;;6.60;2.92;;;;;;;;;;6149730;23;20199;-90
